Time;durP1;ratioP1;P1;durP2;ratioP2;P2;SDS_P1;SDS_P2;PMS_P1;PMS_P2;Temp;Humidity;BMP_temperature;BMP_pressure;BME280_temperature;BME280_humidity;BME280_pressure;Samples;Min_cycle;Max_cycle;Signal;HPM_P1;HPM_P2
2022/05/07 00:00:12;;;;;;;4.70;2.70;;;;;;;14.31;41.82;95383.38;4967134;28;20205;-60
2022/05/07 00:02:38;;;;;;;3.53;2.67;;;;;;;14.19;41.89;95383.84;4982429;28;20226;-60
2022/05/07 00:05:04;;;;;;;3.15;2.67;;;;;;;14.15;41.92;95379.91;4967524;28;20312;-59
2022/05/07 00:07:29;;;;;;;3.20;2.80;;;;;;;14.32;41.77;95389.47;4975990;28;20235;-59
2022/05/07 00:09:54;;;;;;;4.07;2.85;;;;;;;14.30;41.54;95387.03;4974046;28;20224;-60
2022/05/07 00:12:20;;;;;;;4.40;2.50;;;;;;;14.34;41.37;95383.03;4974271;28;20204;-59
2022/05/07 00:14:45;;;;;;;4.97;2.60;;;;;;;14.16;41.44;95386.84;4980460;28;20227;-60
2022/05/07 00:19:55;;;;;;;5.53;2.45;;;;;;;13.94;41.29;95380.38;4968531;28;20706;-60
2022/05/07 00:22:21;;;;;;;5.07;2.53;;;;;;;14.08;41.08;95382.38;4980660;28;20225;-59
2022/05/07 00:24:48;;;;;;;4.90;2.40;;;;;;;14.03;40.96;95379.38;4985784;28;20323;-60
2022/05/07 00:27:14;;;;;;;4.35;2.40;;;;;;;13.96;41.10;95373.13;4977355;28;20203;-60
2022/05/07 00:29:39;;;;;;;5.57;2.78;;;;;;;14.01;40.80;95374.28;4972721;28;20216;-59
2022/05/07 00:32:05;;;;;;;3.92;2.38;;;;;;;13.86;40.57;95375.91;4969650;28;20236;-59
2022/05/07 00:34:31;;;;;;;4.55;2.40;;;;;;;13.88;41.17;95373.94;4980190;28;20231;-59
2022/05/07 00:36:56;;;;;;;4.78;2.50;;;;;;;13.86;40.59;95365.34;4964095;28;20227;-60
2022/05/07 00:39:22;;;;;;;6.10;2.40;;;;;;;13.90;40.86;95364.84;4976535;28;20209;-59
2022/05/07 00:41:47;;;;;;;6.72;3.28;;;;;;;13.99;40.14;95376.25;4980815;28;20270;-60
2022/05/07 00:44:13;;;;;;;3.58;2.42;;;;;;;13.95;40.23;95366.16;4962905;28;20231;-60
2022/05/07 00:46:38;;;;;;;5.10;2.75;;;;;;;13.83;40.39;95365.66;4948770;28;20225;-59
2022/05/07 00:49:04;;;;;;;5.60;2.75;;;;;;;13.80;40.37;95366.00;4941531;28;20220;-59
2022/05/07 00:51:35;;;;;;;4.07;2.72;;;;;;;13.73;40.17;95357.06;4959915;28;20208;-60
2022/05/07 00:54:02;;;;;;;4.53;2.78;;;;;;;13.77;40.08;95363.69;4965808;28;20219;-60
2022/05/07 00:56:27;;;;;;;3.63;2.20;;;;;;;13.60;40.25;95360.16;4963200;28;20232;-59
2022/05/07 00:58:55;;;;;;;3.25;2.50;;;;;;;13.63;40.31;95367.75;4980774;28;20224;-59
2022/05/07 01:01:20;;;;;;;4.53;2.50;;;;;;;13.48;40.27;95361.47;4966525;28;20356;-60
2022/05/07 01:03:46;;;;;;;6.13;2.45;;;;;;;13.46;40.43;95357.16;4982268;28;20223;-60
2022/05/07 01:06:12;;;;;;;4.95;2.47;;;;;;;13.49;40.49;95361.28;4972434;28;20212;-59
2022/05/07 01:08:37;;;;;;;3.35;2.67;;;;;;;13.63;40.10;95362.47;4974831;28;20868;-60
2022/05/07 01:11:03;;;;;;;5.82;2.70;;;;;;;13.23;40.74;95366.63;4976595;28;20235;-59
2022/05/07 01:13:30;;;;;;;4.60;2.78;;;;;;;13.35;40.45;95362.75;4969425;28;20255;-59
2022/05/07 01:15:57;;;;;;;2.30;2.10;;;;;;;13.32;40.51;95371.00;4975873;28;20322;-59
2022/05/07 01:18:23;;;;;;;4.22;2.80;;;;;;;13.37;40.22;95371.34;4985974;28;20220;-60
2022/05/07 01:20:49;;;;;;;5.00;2.80;;;;;;;13.41;39.94;95363.91;4980710;28;20222;-59
2022/05/07 01:23:15;;;;;;;5.45;2.47;;;;;;;13.29;40.06;95368.66;4978663;28;20223;-59
2022/05/07 01:25:41;;;;;;;4.88;2.63;;;;;;;13.45;40.08;95366.06;4971145;28;20232;-59
2022/05/07 01:28:07;;;;;;;3.63;2.22;;;;;;;13.44;39.91;95368.88;4964394;28;20221;-59
2022/05/07 01:30:35;;;;;;;6.35;2.70;;;;;;;13.39;39.63;95374.66;4965743;28;20204;-60
2022/05/07 01:33:01;;;;;;;4.07;2.22;;;;;;;13.40;40.38;95380.75;4971704;28;20342;-60
2022/05/07 01:35:27;;;;;;;5.00;2.38;;;;;;;13.32;40.36;95380.72;4972438;28;20565;-60
2022/05/07 01:37:52;;;;;;;6.05;2.45;;;;;;;13.38;40.09;95377.44;4968416;28;20242;-60
2022/05/07 01:40:18;;;;;;;4.78;2.40;;;;;;;13.37;40.37;95376.63;4978953;28;20220;-60
2022/05/07 01:42:43;;;;;;;3.70;2.20;;;;;;;13.23;40.33;95377.19;4980413;28;20211;-59
2022/05/07 01:45:09;;;;;;;6.03;2.40;;;;;;;13.06;40.50;95368.38;4965063;28;20204;-59
2022/05/07 01:50:22;;;;;;;5.13;2.70;;;;;;;13.19;40.33;95360.84;4952401;28;20330;-60
2022/05/07 01:52:48;;;;;;;4.53;2.35;;;;;;;13.03;40.56;95358.13;4970261;28;20280;-60
2022/05/07 01:55:14;;;;;;;5.57;2.35;;;;;;;13.06;40.47;95355.16;4980497;28;20223;-60
2022/05/07 01:57:39;;;;;;;5.95;2.35;;;;;;;13.12;40.64;95362.44;4971733;28;20213;-63
2022/05/07 02:00:05;;;;;;;5.50;2.70;;;;;;;13.06;40.60;95354.34;4976658;28;20196;-60
2022/05/07 02:02:31;;;;;;;3.65;2.28;;;;;;;13.12;40.49;95361.63;4981665;28;20327;-61
2022/05/07 02:04:56;;;;;;;5.32;2.78;;;;;;;13.11;40.22;95358.16;4974972;28;20335;-60
2022/05/07 02:07:22;;;;;;;2.70;2.25;;;;;;;13.05;40.54;95358.81;4965842;28;20227;-59
2022/05/07 02:09:47;;;;;;;4.65;2.30;;;;;;;13.10;40.49;95364.44;4972966;28;20215;-59
2022/05/07 02:12:12;;;;;;;3.90;2.40;;;;;;;13.02;40.51;95361.78;4981076;28;20218;-59
2022/05/07 02:14:38;;;;;;;3.67;2.30;;;;;;;13.06;40.77;95367.56;4990438;28;20295;-59
2022/05/07 02:17:03;;;;;;;2.88;2.35;;;;;;;13.09;40.62;95365.41;4958719;28;20337;-60
2022/05/07 02:19:29;;;;;;;5.10;2.72;;;;;;;13.14;40.70;95368.41;4967235;28;20225;-59
2022/05/07 02:21:54;;;;;;;5.03;2.42;;;;;;;13.00;41.25;95359.28;4969970;28;20332;-60
2022/05/07 02:24:20;;;;;;;6.68;3.15;;;;;;;12.90;40.83;95358.56;4974199;28;20240;-61
2022/05/07 02:26:45;;;;;;;3.45;2.60;;;;;;;12.97;40.80;95367.50;4973936;28;20238;-59
2022/05/07 02:29:10;;;;;;;5.07;2.65;;;;;;;12.94;41.25;95361.72;4975414;28;20235;-59
2022/05/07 02:31:36;;;;;;;3.70;2.33;;;;;;;12.67;41.61;95363.56;4975097;28;20257;-59
2022/05/07 02:34:02;;;;;;;4.43;2.45;;;;;;;12.76;41.17;95367.91;4975128;28;20243;-59
2022/05/07 02:36:27;;;;;;;4.65;2.47;;;;;;;12.69;41.67;95363.41;4968973;28;20279;-59
2022/05/07 02:38:52;;;;;;;3.42;2.30;;;;;;;12.69;41.48;95368.69;4977831;28;20211;-60
2022/05/07 02:44:04;;;;;;;4.97;2.10;;;;;;;12.73;41.87;95375.31;4966812;28;20286;-60
2022/05/07 02:46:29;;;;;;;3.97;2.35;;;;;;;12.57;41.88;95376.03;4973646;28;20251;-59
2022/05/07 02:48:55;;;;;;;2.45;2.25;;;;;;;12.32;42.70;95378.50;4979465;28;20225;-60
2022/05/07 02:51:20;;;;;;;4.82;2.38;;;;;;;12.41;42.63;95374.13;4972000;28;20204;-60
2022/05/07 02:53:46;;;;;;;4.05;2.40;;;;;;;12.36;42.46;95369.28;4977943;28;20215;-60
2022/05/07 02:56:12;;;;;;;7.07;2.70;;;;;;;12.44;42.59;95378.25;4965309;28;20239;-59
2022/05/07 02:58:37;;;;;;;5.55;2.67;;;;;;;12.53;42.58;95377.31;4964145;28;20232;-60
2022/05/07 03:01:04;;;;;;;4.43;2.55;;;;;;;12.57;42.53;95386.59;4964764;28;20224;-60
2022/05/07 03:03:29;;;;;;;4.88;2.78;;;;;;;12.55;42.35;95378.00;4973207;28;20210;-59
2022/05/07 03:05:56;;;;;;;4.30;2.65;;;;;;;12.48;42.71;95371.66;4972338;28;20212;-59
2022/05/07 03:08:23;;;;;;;5.32;2.92;;;;;;;12.49;42.87;95387.34;4969853;28;20314;-60
2022/05/07 03:10:49;;;;;;;3.13;2.60;;;;;;;12.47;42.88;95370.84;4982765;28;20268;-60
2022/05/07 03:13:15;;;;;;;3.75;2.45;;;;;;;12.45;42.94;95370.16;4982928;28;20220;-59
2022/05/07 03:15:40;;;;;;;3.10;2.50;;;;;;;12.36;43.31;95379.00;4975424;28;20204;-60
2022/05/07 03:18:06;;;;;;;3.72;2.33;;;;;;;12.41;43.27;95378.56;4973998;28;20211;-59
2022/05/07 03:20:31;;;;;;;5.32;2.78;;;;;;;12.36;43.25;95371.94;4972470;28;20309;-59
2022/05/07 03:22:58;;;;;;;5.32;2.60;;;;;;;12.38;43.44;95370.97;4980663;28;20307;-60
2022/05/07 03:25:24;;;;;;;3.15;2.60;;;;;;;12.37;43.64;95375.38;4963108;28;20228;-59
2022/05/07 03:27:49;;;;;;;9.98;3.20;;;;;;;12.42;43.62;95380.22;4994076;28;20236;-59
2022/05/07 03:30:15;;;;;;;5.75;2.67;;;;;;;12.34;43.97;95384.44;4967092;28;20238;-59
2022/05/07 03:32:40;;;;;;;5.90;2.75;;;;;;;12.24;44.03;95370.53;4966043;28;20233;-60
2022/05/07 03:35:06;;;;;;;3.60;2.88;;;;;;;12.23;44.34;95379.41;4976005;28;20292;-60
2022/05/07 03:37:32;;;;;;;4.20;2.60;;;;;;;12.30;44.25;95377.81;4980461;28;20232;-59
2022/05/07 03:39:57;;;;;;;4.75;2.83;;;;;;;12.27;44.39;95374.66;4967384;28;20228;-60
2022/05/07 03:42:23;;;;;;;5.32;2.75;;;;;;;12.29;44.21;95373.50;4968221;28;20212;-59
2022/05/07 03:44:49;;;;;;;2.50;2.30;;;;;;;12.28;44.35;95373.69;4974038;28;20231;-60
2022/05/07 03:47:14;;;;;;;5.30;3.13;;;;;;;12.28;44.64;95378.97;4970903;28;20212;-59
2022/05/07 03:49:40;;;;;;;4.38;3.03;;;;;;;12.35;44.37;95382.66;4978573;28;20242;-59
2022/05/07 03:54:50;;;;;;;6.80;3.00;;;;;;;12.14;44.83;95375.88;4964544;28;20235;-59
2022/05/07 03:57:16;;;;;;;4.03;2.47;;;;;;;12.17;45.02;95380.03;4971433;28;20292;-60
2022/05/07 03:59:42;;;;;;;3.83;2.97;;;;;;;12.34;44.86;95384.44;4972182;28;20232;-59
2022/05/07 04:02:08;;;;;;;7.30;3.20;;;;;;;12.30;44.68;95383.09;4966609;28;20227;-60
2022/05/07 04:04:33;;;;;;;3.65;3.13;;;;;;;12.32;44.85;95385.56;4977800;28;20251;-59
2022/05/07 04:06:59;;;;;;;3.75;2.90;;;;;;;12.43;44.64;95400.31;4984527;28;20264;-59
2022/05/07 04:09:25;;;;;;;7.15;2.92;;;;;;;12.47;44.54;95393.75;4974343;28;20220;-58
2022/05/07 04:11:50;;;;;;;6.32;3.25;;;;;;;12.49;44.63;95386.53;4965309;28;20203;-60
2022/05/07 04:14:16;;;;;;;4.47;3.30;;;;;;;12.44;44.81;95392.25;4970897;28;20228;-60
2022/05/07 04:16:41;;;;;;;5.10;3.00;;;;;;;12.57;44.36;95395.31;4974716;28;20232;-59
2022/05/07 04:19:07;;;;;;;4.88;2.92;;;;;;;12.51;44.92;95389.81;4984585;28;20229;-60
2022/05/07 04:21:37;;;;;;;5.35;2.92;;;;;;;12.66;44.50;95384.81;4967570;28;20216;-59
2022/05/07 04:24:04;;;;;;;5.70;3.17;;;;;;;12.76;44.54;95390.81;4966518;28;20211;-59
2022/05/07 04:26:29;;;;;;;5.38;3.17;;;;;;;12.79;45.10;95390.50;4964850;28;20216;-59
2022/05/07 04:28:54;;;;;;;6.10;2.78;;;;;;;12.82;44.47;95384.91;4961078;28;20251;-59
2022/05/07 04:31:20;;;;;;;6.65;3.05;;;;;;;12.94;44.31;95394.22;4964609;28;20230;-60
2022/05/07 04:33:45;;;;;;;4.47;3.10;;;;;;;12.98;44.20;95384.19;4990708;28;20231;-60
2022/05/07 04:36:11;;;;;;;7.45;3.13;;;;;;;13.05;44.23;95395.78;4975295;28;20203;-59
2022/05/07 04:38:36;;;;;;;4.45;3.10;;;;;;;13.22;43.78;95397.47;4980007;28;20219;-59
2022/05/07 04:41:02;;;;;;;4.22;3.22;;;;;;;13.21;43.68;95395.84;4973105;28;20223;-59
2022/05/07 04:43:28;;;;;;;7.40;3.42;;;;;;;13.22;43.92;95391.38;4969793;28;20248;-60
2022/05/07 04:45:53;;;;;;;5.63;3.20;;;;;;;13.26;43.83;95387.47;4975133;28;20307;-59
2022/05/07 04:48:19;;;;;;;6.32;3.13;;;;;;;13.36;43.74;95390.78;4975132;28;20211;-59
2022/05/07 04:50:44;;;;;;;5.40;3.17;;;;;;;13.32;44.10;95389.47;4980130;28;20314;-59
2022/05/07 04:53:10;;;;;;;3.83;3.30;;;;;;;13.29;44.53;95395.09;4977887;28;20220;-59
2022/05/07 04:55:35;;;;;;;5.65;3.30;;;;;;;13.33;44.56;95393.75;4972056;28;20236;-59
2022/05/07 04:58:01;;;;;;;4.55;2.90;;;;;;;13.30;44.56;95394.09;4974351;28;20290;-60
2022/05/07 05:00:27;;;;;;;5.57;3.10;;;;;;;13.38;44.42;95396.75;4973777;28;20246;-59
2022/05/07 05:02:52;;;;;;;4.43;3.13;;;;;;;13.40;44.28;95396.59;4975109;28;20323;-60
2022/05/07 05:05:18;;;;;;;5.75;3.67;;;;;;;13.47;44.09;95394.97;4969662;28;20232;-59
2022/05/07 05:07:44;;;;;;;5.75;3.50;;;;;;;13.57;43.86;95400.94;4975051;28;20231;-59
2022/05/07 05:10:10;;;;;;;5.82;3.42;;;;;;;13.59;43.67;95393.69;4978193;28;20256;-59
2022/05/07 05:12:35;;;;;;;5.13;3.80;;;;;;;13.62;43.70;95390.72;4976736;28;20207;-59
2022/05/07 05:15:08;;;;;;;10.82;4.40;;;;;;;13.67;44.03;95392.88;4983199;28;20382;-60
2022/05/07 05:17:35;;;;;;;7.97;4.25;;;;;;;13.70;44.05;95392.56;4968776;28;20221;-59
2022/05/07 05:20:02;;;;;;;9.00;4.65;;;;;;;13.68;44.32;95392.75;4950488;28;20276;-59
2022/05/07 05:22:28;;;;;;;9.25;4.78;;;;;;;13.77;44.39;95396.22;4952162;28;20228;-59
2022/05/07 05:24:53;;;;;;;5.55;4.93;;;;;;;13.77;44.63;95388.28;4966887;28;20220;-60
2022/05/07 05:27:20;;;;;;;9.20;5.18;;;;;;;13.86;44.94;95402.34;4988873;28;20200;-60
2022/05/07 05:29:45;;;;;;;11.20;5.15;;;;;;;13.84;45.00;95397.19;4966609;28;20228;-60
2022/05/07 05:32:17;;;;;;;6.45;5.35;;;;;;;13.88;44.69;95400.38;4982326;28;20231;-60
2022/05/07 05:34:48;;;;;;;7.72;4.55;;;;;;;13.91;44.58;95402.69;4985392;28;20342;-60
2022/05/07 05:37:16;;;;;;;6.18;4.75;;;;;;;14.06;44.35;95408.13;4970702;28;20275;-59
2022/05/07 05:39:42;;;;;;;10.40;4.80;;;;;;;14.05;44.36;95404.69;4970738;28;20208;-59
2022/05/07 05:42:08;;;;;;;8.85;5.25;;;;;;;14.11;44.11;95406.69;4987496;28;20205;-59
2022/05/07 05:44:38;;;;;;;8.45;5.53;;;;;;;14.19;43.64;95402.38;4963959;28;20229;-59
2022/05/07 05:47:04;;;;;;;9.70;5.03;;;;;;;14.23;44.31;95409.00;4950332;28;20251;-59
2022/05/07 05:49:30;;;;;;;6.05;4.25;;;;;;;14.13;43.49;95403.84;4956719;28;20225;-60
2022/05/07 05:51:55;;;;;;;8.38;4.43;;;;;;;14.16;43.66;95400.06;4968061;28;20231;-60
2022/05/07 05:54:21;;;;;;;4.97;4.07;;;;;;;14.13;43.59;95404.69;4970037;28;20255;-59
2022/05/07 05:56:46;;;;;;;9.13;4.15;;;;;;;14.20;43.61;95412.81;4978906;28;20329;-60
2022/05/07 05:59:12;;;;;;;5.63;4.10;;;;;;;14.14;43.61;95416.09;4976404;28;20225;-60
2022/05/07 06:01:37;;;;;;;6.05;4.10;;;;;;;14.17;43.54;95409.66;4977486;28;20224;-59
2022/05/07 06:04:03;;;;;;;7.03;4.35;;;;;;;14.16;43.68;95413.28;4974061;28;20227;-60
2022/05/07 06:06:29;;;;;;;4.25;3.83;;;;;;;14.34;43.84;95411.31;4975264;28;20211;-60
2022/05/07 06:08:54;;;;;;;3.72;3.38;;;;;;;14.39;43.46;95419.59;4978304;28;20262;-60
2022/05/07 06:11:20;;;;;;;5.78;3.95;;;;;;;14.51;43.24;95405.03;4976803;28;20242;-59
2022/05/07 06:13:47;;;;;;;7.07;4.13;;;;;;;14.56;43.83;95415.97;4971095;28;20231;-59
2022/05/07 06:16:12;;;;;;;4.82;3.90;;;;;;;14.60;43.23;95418.28;4967353;28;20251;-60
2022/05/07 06:18:38;;;;;;;6.38;3.90;;;;;;;14.69;43.04;95407.50;4974551;28;20236;-59
2022/05/07 06:21:04;;;;;;;5.53;3.78;;;;;;;14.73;43.67;95413.31;4966598;28;20208;-59
2022/05/07 06:23:30;;;;;;;4.88;3.58;;;;;;;14.85;43.67;95413.78;4973149;28;20228;-59
2022/05/07 06:28:39;;;;;;;5.82;3.90;;;;;;;14.89;43.30;95410.63;4969425;28;20246;-59
2022/05/07 06:31:04;;;;;;;5.13;3.83;;;;;;;14.99;43.03;95413.94;4977642;28;20220;-59
2022/05/07 06:33:32;;;;;;;6.40;3.90;;;;;;;15.05;42.88;95416.88;4963555;28;20231;-59
2022/05/07 06:35:57;;;;;;;7.32;3.97;;;;;;;14.99;42.71;95411.28;4974330;28;20303;-58
2022/05/07 06:38:23;;;;;;;6.40;3.58;;;;;;;15.06;43.15;95411.41;4978716;28;20252;-59
2022/05/07 06:40:49;;;;;;;6.57;4.05;;;;;;;15.12;42.74;95408.09;4973728;28;20232;-59
2022/05/07 06:43:14;;;;;;;13.57;4.25;;;;;;;15.15;43.09;95406.91;4984918;28;20227;-58
2022/05/07 06:45:40;;;;;;;8.43;4.10;;;;;;;15.24;42.36;95397.97;4974868;28;20241;-58
2022/05/07 06:48:08;;;;;;;8.20;3.78;;;;;;;15.16;43.45;95401.47;4968385;28;20209;-59
2022/05/07 06:50:34;;;;;;;5.78;4.03;;;;;;;15.31;42.64;95414.00;4975123;28;20738;-59
2022/05/07 06:53:00;;;;;;;7.00;3.80;;;;;;;15.40;42.41;95399.72;4973712;28;20254;-59
2022/05/07 06:55:26;;;;;;;5.68;3.97;;;;;;;15.43;42.66;95405.50;4976299;28;20252;-59
2022/05/07 06:57:53;;;;;;;5.78;4.20;;;;;;;15.36;42.42;95404.53;4968524;28;20255;-58
2022/05/07 07:00:18;;;;;;;6.05;4.18;;;;;;;15.41;42.67;95406.66;4967850;28;20208;-58
2022/05/07 07:02:44;;;;;;;4.00;3.60;;;;;;;15.30;42.44;95396.44;4970182;28;20228;-59
2022/05/07 07:05:10;;;;;;;7.05;4.47;;;;;;;15.47;42.63;95394.56;4971726;28;20252;-59
2022/05/07 07:07:36;;;;;;;6.32;4.25;;;;;;;15.63;42.20;95407.72;4985754;28;20255;-59
2022/05/07 07:10:01;;;;;;;6.60;4.07;;;;;;;15.64;41.54;95386.34;4978487;28;20231;-58
2022/05/07 07:12:28;;;;;;;6.53;4.13;;;;;;;15.74;41.07;95386.16;4980779;28;20612;-59
2022/05/07 07:14:54;;;;;;;7.25;3.75;;;;;;;15.75;40.81;95384.34;4966212;28;20215;-59
2022/05/07 07:17:19;;;;;;;8.35;3.97;;;;;;;15.78;41.15;95378.69;4974835;28;20218;-59
2022/05/07 07:19:45;;;;;;;8.98;4.07;;;;;;;15.93;41.17;95381.41;4968384;28;20231;-60
2022/05/07 07:22:11;;;;;;;6.88;4.25;;;;;;;16.01;41.07;95382.19;4974831;28;20223;-59
2022/05/07 07:24:36;;;;;;;6.13;4.25;;;;;;;16.02;40.94;95383.00;4988371;28;20266;-59
2022/05/07 07:27:05;;;;;;;5.75;4.30;;;;;;;16.26;40.36;95380.19;4965688;28;20201;-60
2022/05/07 07:29:32;;;;;;;5.43;4.35;;;;;;;16.40;39.64;95372.44;4975879;28;20274;-59
2022/05/07 07:31:57;;;;;;;5.32;3.90;;;;;;;16.54;39.21;95372.47;4977130;28;20598;-59
2022/05/07 07:34:23;;;;;;;7.15;4.03;;;;;;;16.73;38.96;95375.59;4970724;28;20242;-60
2022/05/07 07:36:52;;;;;;;7.32;3.38;;;;;;;16.82;38.76;95368.44;4969008;28;20265;-59
2022/05/07 07:39:19;;;;;;;5.15;3.28;;;;;;;16.93;38.93;95371.47;4967704;28;20200;-60
2022/05/07 07:41:45;;;;;;;9.43;3.60;;;;;;;17.12;38.73;95378.06;4969992;28;20244;-60
2022/05/07 07:44:11;;;;;;;4.50;3.40;;;;;;;17.26;37.52;95362.28;4970503;28;20246;-60
2022/05/07 07:49:21;;;;;;;7.35;3.85;;;;;;;17.26;37.55;95363.09;4977487;28;20223;-60
2022/05/07 07:51:47;;;;;;;7.13;3.90;;;;;;;17.50;37.91;95377.94;4967844;28;20228;-60
2022/05/07 07:54:14;;;;;;;4.25;3.33;;;;;;;17.52;37.46;95365.28;4965668;28;20239;-59
2022/05/07 07:56:39;;;;;;;7.25;3.60;;;;;;;17.67;36.75;95353.78;4965575;28;20279;-58
2022/05/07 07:59:05;;;;;;;9.68;3.67;;;;;;;17.96;36.89;95366.19;4974403;28;20220;-59
2022/05/07 08:01:31;;;;;;;5.03;3.60;;;;;;;17.99;36.13;95366.66;4972195;28;20235;-60
2022/05/07 08:03:57;;;;;;;5.43;3.35;;;;;;;18.08;36.55;95362.03;4964355;28;20223;-59
2022/05/07 08:06:22;;;;;;;5.75;3.67;;;;;;;18.18;35.53;95359.06;4987310;28;20208;-59
2022/05/07 08:11:46;;;;;;;5.55;3.90;;;;;;;18.35;34.68;95359.63;4927317;29;20237;-60
2022/05/07 08:14:13;;;;;;;7.43;3.35;;;;;;;18.46;34.51;95362.59;4898768;29;20300;-60
2022/05/07 08:16:40;;;;;;;5.28;3.42;;;;;;;18.39;35.14;95364.38;4933649;29;20324;-60
2022/05/07 08:19:06;;;;;;;4.40;3.20;;;;;;;18.38;34.65;95370.72;4917816;29;20225;-61
2022/05/07 08:21:32;;;;;;;5.95;3.30;;;;;;;18.35;33.72;95364.94;4926718;29;20215;-59
2022/05/07 08:23:58;;;;;;;6.65;4.07;;;;;;;18.30;34.21;95371.66;4934521;29;20227;-59
2022/05/07 08:26:24;;;;;;;6.22;3.88;;;;;;;18.33;34.17;95362.47;4925438;29;20245;-59
2022/05/07 08:28:53;;;;;;;5.78;3.70;;;;;;;18.26;34.86;95366.94;4919925;29;20457;-59
2022/05/07 08:31:23;;;;;;;4.82;3.35;;;;;;;18.19;35.33;95366.03;4923821;29;20233;-58
2022/05/07 08:33:49;;;;;;;6.38;3.20;;;;;;;18.32;34.40;95374.16;4877871;29;1212412;-59
2022/05/07 08:36:15;;;;;;;3.47;2.88;;;;;;;18.26;34.24;95358.94;4905905;29;20281;-59
2022/05/07 08:38:42;;;;;;;4.80;3.03;;;;;;;18.18;34.46;95365.22;4928494;29;20304;-60
2022/05/07 08:41:08;;;;;;;5.20;3.20;;;;;;;18.32;34.85;95362.69;4926404;29;20221;-59
2022/05/07 08:43:38;;;;;;;5.13;2.90;;;;;;;18.28;34.21;95370.19;4919844;29;20226;-60
2022/05/07 08:46:09;;;;;;;3.28;2.95;;;;;;;18.25;34.58;95366.09;4924801;29;20233;-59
2022/05/07 08:48:35;;;;;;;3.85;3.03;;;;;;;18.35;34.34;95360.44;4944635;28;20215;-60
2022/05/07 08:51:01;;;;;;;4.25;2.83;;;;;;;18.34;34.43;95364.13;4971973;28;20215;-60
2022/05/07 08:53:27;;;;;;;5.15;2.75;;;;;;;18.37;34.12;95366.41;4970280;28;20224;-60
2022/05/07 08:55:54;;;;;;;5.35;3.42;;;;;;;18.40;33.81;95366.03;4978779;28;20212;-60
2022/05/07 08:58:20;;;;;;;5.65;2.88;;;;;;;18.51;33.76;95368.16;4971450;28;20243;-59
2022/05/07 09:00:45;;;;;;;4.32;3.15;;;;;;;18.51;34.53;95368.16;4960441;28;20251;-59
2022/05/07 09:03:15;;;;;;;4.47;3.08;;;;;;;18.60;33.57;95362.69;4956143;28;20295;-58
2022/05/07 09:05:41;;;;;;;3.17;2.70;;;;;;;18.69;35.47;95362.38;4963709;28;20227;-58
2022/05/07 09:08:07;;;;;;;7.05;3.10;;;;;;;18.78;33.78;95351.59;4971210;28;20234;-58
2022/05/07 09:10:37;;;;;;;3.95;2.95;;;;;;;18.87;32.75;95356.59;4963459;28;20300;-60
2022/05/07 09:13:13;;;;;;;2.50;2.30;;;;;;;18.71;32.74;95355.00;4966768;28;20232;-60
2022/05/07 09:15:53;;;;;;;2.60;2.22;;;;;;;18.88;33.15;95354.75;4977868;28;20209;-60
2022/05/07 09:18:20;;;;;;;3.92;2.60;;;;;;;18.83;32.04;95344.66;4978733;28;20268;-59
2022/05/07 09:24:00;;;;;;;5.55;3.15;;;;;;;19.05;32.77;95341.94;4961875;28;20235;-60
2022/05/07 09:26:36;;;;;;;5.32;2.65;;;;;;;19.18;32.94;95342.81;4977641;28;20236;-59
2022/05/07 09:29:03;;;;;;;4.10;2.90;;;;;;;19.22;32.26;95343.28;4958674;28;20391;-60
2022/05/07 09:31:32;;;;;;;4.97;2.72;;;;;;;19.33;31.85;95342.69;4971387;28;20263;-60
2022/05/07 09:35:47;;;;;;;5.80;3.13;;;;;;;19.37;31.71;95332.44;4976434;28;20255;-60
2022/05/07 09:36:46;;;;;;;5.55;3.33;;;;;;;19.47;32.00;95332.91;4975385;28;20242;-60
2022/05/07 09:39:14;;;;;;;4.15;2.97;;;;;;;19.65;31.98;95323.53;4991689;28;20192;-60
2022/05/07 09:41:43;;;;;;;5.18;2.92;;;;;;;19.71;31.95;95317.44;4972271;28;20284;-60
2022/05/07 09:44:10;;;;;;;3.20;2.88;;;;;;;19.65;31.44;95319.03;4987603;28;20295;-59
2022/05/07 09:46:35;;;;;;;6.05;2.50;;;;;;;19.42;31.76;95308.69;4978224;28;20247;-58
2022/05/07 09:49:03;;;;;;;6.13;3.15;;;;;;;19.59;32.15;95310.00;4990599;28;20532;-59
2022/05/07 09:51:30;;;;;;;4.15;2.90;;;;;;;19.55;32.17;95303.38;4984452;28;20228;-60
2022/05/07 09:59:25;;;;;;;3.15;2.33;;;;;;;20.18;28.82;95303.16;4964352;28;20239;-60
2022/05/07 10:02:12;;;;;;;3.30;2.70;;;;;;;20.16;29.20;95304.38;4970256;28;20236;-60
2022/05/07 10:05:02;;;;;;;6.00;2.72;;;;;;;20.03;28.43;95284.63;4977226;28;20208;-58
2022/05/07 10:07:42;;;;;;;4.07;2.58;;;;;;;20.00;29.36;95294.91;4973421;28;20368;-60
2022/05/07 10:10:17;;;;;;;4.15;2.38;;;;;;;20.05;28.45;95295.13;4975479;28;20228;-59
2022/05/07 10:12:45;;;;;;;3.95;2.30;;;;;;;20.13;28.02;95291.41;4985906;28;20208;-60
2022/05/07 10:15:14;;;;;;;3.67;2.22;;;;;;;20.37;27.54;95290.81;4966876;28;20197;-60
2022/05/07 10:17:39;;;;;;;4.80;2.60;;;;;;;20.43;28.55;95286.50;4993375;28;20235;-59
2022/05/07 10:20:09;;;;;;;4.60;3.13;;;;;;;20.86;28.65;95283.41;4981362;28;20525;-60
2022/05/07 10:22:35;;;;;;;4.70;2.65;;;;;;;21.17;28.57;95276.50;4967107;28;20219;-59
2022/05/07 10:25:10;;;;;;;4.00;2.80;;;;;;;21.44;28.03;95280.78;4974653;28;20316;-60
2022/05/07 10:27:42;;;;;;;3.30;2.63;;;;;;;21.59;26.92;95270.59;4988235;28;20211;-60
2022/05/07 10:30:23;;;;;;;4.68;2.60;;;;;;;21.81;27.37;95275.59;4977312;28;20216;-60
2022/05/07 10:33:03;;;;;;;5.68;2.80;;;;;;;21.93;26.21;95268.53;4986325;28;20270;-60
2022/05/07 10:35:52;;;;;;;4.35;2.80;;;;;;;22.13;26.00;95278.28;4973417;28;20240;-60
2022/05/07 10:38:27;;;;;;;4.82;2.88;;;;;;;22.20;25.05;95281.78;4983616;28;20248;-60
2022/05/07 10:41:01;;;;;;;3.03;2.50;;;;;;;22.40;23.33;95277.09;4978292;28;20220;-60
2022/05/07 10:43:42;;;;;;;2.80;2.50;;;;;;;22.49;22.84;95272.25;4984217;28;20232;-59
2022/05/07 10:46:16;;;;;;;4.70;2.92;;;;;;;22.53;23.28;95260.06;4969727;28;20311;-59
2022/05/07 10:48:44;;;;;;;4.30;2.25;;;;;;;22.74;23.42;95260.69;4976483;28;20215;-60
2022/05/07 10:51:25;;;;;;;4.65;2.42;;;;;;;22.95;22.26;95264.81;4964058;28;20341;-60
2022/05/07 10:53:51;;;;;;;4.38;2.42;;;;;;;23.01;22.59;95253.22;4980485;28;20227;-60
2022/05/07 10:56:19;;;;;;;3.83;2.40;;;;;;;23.01;23.26;95247.84;4965060;28;20270;-60
2022/05/07 10:58:47;;;;;;;5.18;2.50;;;;;;;23.25;22.81;95260.34;4979815;28;20295;-59
2022/05/07 11:01:13;;;;;;;3.45;2.25;;;;;;;23.30;21.55;95248.94;4969093;28;20244;-60
2022/05/07 11:03:41;;;;;;;2.63;2.28;;;;;;;23.24;20.73;95265.97;4973000;28;20240;-59
2022/05/07 11:06:07;;;;;;;3.28;2.28;;;;;;;22.94;20.27;95247.91;4970968;28;20231;-59
2022/05/07 11:08:53;;;;;;;3.00;2.47;;;;;;;23.00;20.71;95247.03;4982823;28;20306;-60
2022/05/07 11:11:19;;;;;;;4.30;2.00;;;;;;;23.00;22.13;95251.59;4974429;28;20224;-59
2022/05/07 11:13:49;;;;;;;3.65;2.58;;;;;;;23.08;20.60;95241.38;4975214;28;20224;-59
2022/05/07 11:16:16;;;;;;;5.43;2.60;;;;;;;23.27;20.69;95231.44;4991996;28;20227;-59
2022/05/07 11:18:45;;;;;;;5.57;2.25;;;;;;;23.39;19.49;95236.03;4977937;28;20203;-59
2022/05/07 11:21:12;;;;;;;4.85;2.47;;;;;;;23.50;18.32;95235.31;4977301;28;20202;-60
2022/05/07 11:23:44;;;;;;;2.65;2.20;;;;;;;23.63;17.87;95232.44;4963107;28;20587;-60
2022/05/07 11:26:17;;;;;;;4.75;1.98;;;;;;;23.77;16.93;95239.28;4967411;28;20278;-60
2022/05/07 11:28:44;;;;;;;2.97;1.90;;;;;;;24.12;16.95;95233.16;4982504;28;20232;-59
2022/05/07 11:31:26;;;;;;;3.90;2.10;;;;;;;24.41;15.34;95238.69;4980636;28;20252;-59
2022/05/07 11:34:03;;;;;;;3.75;2.15;;;;;;;24.52;14.35;95229.03;4977760;28;20282;-60
2022/05/07 11:36:29;;;;;;;3.25;1.92;;;;;;;24.50;15.57;95212.31;4980214;28;20199;-59
2022/05/07 11:38:59;;;;;;;4.22;2.30;;;;;;;24.29;16.61;95219.88;4972887;28;20245;-60
2022/05/07 11:41:25;;;;;;;3.53;2.20;;;;;;;24.49;16.24;95218.75;4968457;28;20303;-59
2022/05/07 11:46:34;;;;;;;2.95;2.30;;;;;;;24.79;16.90;95213.25;4964045;28;20232;-59
2022/05/07 11:49:06;;;;;;;3.75;2.25;;;;;;;24.97;16.15;95212.28;4969225;28;20310;-59
2022/05/07 11:51:32;;;;;;;3.97;2.17;;;;;;;24.85;17.60;95193.47;4963946;28;20204;-59
2022/05/07 11:54:07;;;;;;;3.97;2.50;;;;;;;24.90;16.33;95190.06;4960715;28;20220;-59
2022/05/07 11:56:33;;;;;;;4.10;2.05;;;;;;;25.22;15.43;95203.94;4975838;28;20227;-60
2022/05/07 11:59:00;;;;;;;4.45;2.33;;;;;;;25.46;15.21;95194.72;4962584;28;20228;-59
2022/05/07 12:01:29;;;;;;;3.00;2.60;;;;;;;25.16;15.64;95194.94;4963448;28;20228;-59
2022/05/07 12:03:55;;;;;;;2.28;2.03;;;;;;;25.26;15.48;95195.16;4958264;28;20787;-60